Historique des mesures à Cassis (13260), France
Quotidien Résumé Fevrier 5, 2017 Unités:  Métrique    US   Métrique/US
« Précédent (Jour)
Suivant (Jour) »
Quotidien Hebdomadaire Mensuel Annuel Période au choix
  Maximum: Minimum: Moyenne:
Température: TemperatureC °C 9.1 °C 10.8 °C
Point de rosée: DewpointC °C 3.4 °C 7 °C
Humidité: Humidity % 67 % 74 %
Vitesse du vent: 0 km/h 0 km/h 12.4 km/h
Rafales: 0 km/h - -
Vent:- - SW
Pression: PressurehPa hPa 997.5 hPa -
Précipitations: 7.4 mm    
Historical Graphs
 
 
Mesures pour : Fevrier 5, 2017
Heure Temperature Point de rosée Pression Vent Vitesse du vent Rafales Humidité Pluie (par heure) Conditions
TemperatureC °C DewpointC °C PressurehPa hPa Calm     Humidity % HourlyPrecipMM mm SoftwareType W/m2
00:10 12.1 °C 7.0 °C 1006.7 hPa Calm     71 % 0.0 mm open2300-1.11 W/m2
01:11 12.1 °C 7.4 °C 1006.7 hPa Calm     73 % 0.0 mm open2300-1.11 W/m2
02:10 11.4 °C 7.5 °C 1005.3 hPa Calm     77 % 0.5 mm open2300-1.11 W/m2
03:11 11.5 °C 8.0 °C 1004.3 hPa Calm     79 % 0.5 mm open2300-1.11 W/m2
04:10 11.5 °C 8.2 °C 1002.6 hPa Calm   9.3 km/h 80 % 0.0 mm open2300-1.11 W/m2
05:11 11.6 °C 8.3 °C 1001.2 hPa Calm   4.2 km/h 80 % 0.0 mm open2300-1.11 W/m2
06:10 12.3 °C 9.2 °C 999.9 hPa ESE 4.2 km/h 7.6 km/h 81 % 0.0 mm open2300-1.11 W/m2
07:11 12.6 °C 9.8 °C 999.2 hPa ESE 5.6 km/h 6.4 km/h 83 % 0.0 mm open2300-1.11 W/m2
08:10 12.9 °C 10.1 °C 998.9 hPa SE 3.4 km/h 6.9 km/h 83 % 0.0 mm open2300-1.11 W/m2
09:11 13.3 °C 10.4 °C 998.2 hPa Calm     83 % 0.0 mm open2300-1.11 W/m2
10:10 14.1 °C 11.1 °C 997.9 hPa WNW 7.6 km/h 7.6 km/h 82 % 0.0 mm open2300-1.11 W/m2
11:11 12.6 °C 9.8 °C 997.5 hPa NNW 17.4 km/h 17.4 km/h 83 % 0.0 mm open2300-1.11 W/m2
12:10 11.4 °C 8.8 °C 997.5 hPa NW 6.9 km/h 17.4 km/h 84 % 1.5 mm open2300-1.11 W/m2
13:11 9.9 °C 7.1 °C 998.9 hPa NNW 11.6 km/h 40.7 km/h 83 % 2.5 mm open2300-1.11 W/m2
14:10 9.9 °C 6.9 °C 998.2 hPa North 23.8 km/h 23.8 km/h 82 % 2.0 mm open2300-1.11 W/m2
15:11 10.1 °C 6.1 °C 997.9 hPa NNW 14.5 km/h 33.6 km/h 76 % 0.0 mm open2300-1.11 W/m2
16:11 10.1 °C 6.2 °C 998.2 hPa NW 34.8 km/h 49.7 km/h 77 % 0.0 mm open2300-1.11 W/m2
18:11 10.3 °C 5.3 °C 998.9 hPa NW 42.2 km/h 42.2 km/h 71 % 0.0 mm open2300-1.11 W/m2
19:10 10.2 °C 4.8 °C 999.2 hPa NNW 34.8 km/h 34.8 km/h 69 % 0.0 mm open2300-1.11 W/m2
20:11 10.1 °C 4.4 °C 999.5 hPa WNW 31.4 km/h 31.4 km/h 68 % 0.0 mm open2300-1.11 W/m2
21:10 9.9 °C 4.1 °C 999.5 hPa NW 44.6 km/h 44.6 km/h 67 % 0.0 mm open2300-1.11 W/m2
22:11 9.6 °C 3.8 °C 999.5 hPa North 2.3 km/h 39.9 km/h 67 % 0.0 mm open2300-1.11 W/m2
23:10 9.1 °C 3.4 °C 999.9 hPa NNE 14 km/h 17.4 km/h 68 % 0.0 mm open2300-1.11 W/m2
Observations météo à CASSIS
WU-History script by Weather Underground - 1 mb